createdAt,value
2023-03-01T00:02:48.327Z,2.51
2023-03-01T00:07:56.587Z,2.83
2023-03-01T00:13:02.006Z,3.11
2023-03-01T00:18:07.418Z,3.36
2023-03-01T00:23:14.571Z,3.52
2023-03-01T00:28:20.017Z,3.70
2023-03-01T00:33:25.325Z,3.87
2023-03-01T00:38:30.775Z,4.09
2023-03-01T00:43:38.820Z,4.24
2023-03-01T00:48:44.944Z,4.37
2023-03-01T00:53:53.475Z,4.48
2023-03-01T00:58:59.231Z,4.61
2023-03-01T01:04:11.168Z,4.77
2023-03-01T01:09:21.978Z,4.84
2023-03-01T01:14:27.347Z,4.87
2023-03-01T01:19:32.638Z,4.99
2023-03-01T01:24:38.403Z,5.07
2023-03-01T01:29:44.305Z,5.08
2023-03-01T01:34:50.345Z,5.22
2023-03-01T01:39:56.486Z,5.25
2023-03-01T01:45:37.219Z,5.42
2023-03-01T01:50:44.192Z,5.52
2023-03-01T01:55:54.839Z,5.62
2023-03-01T02:01:00.239Z,5.79
2023-03-01T02:06:07.682Z,5.87
2023-03-01T02:11:16.875Z,5.86
2023-03-01T02:16:23.101Z,5.91
2023-03-01T02:21:44.743Z,6.07
2023-03-01T02:26:54.955Z,5.99
2023-03-01T02:32:05.959Z,6.05
2023-03-01T02:37:20.567Z,6.16
2023-03-01T02:42:29.566Z,6.20
2023-03-01T02:47:35.119Z,6.35
2023-03-01T02:52:57.415Z,6.40
2023-03-01T02:58:06.097Z,6.54
2023-03-01T03:03:16.501Z,6.74
2023-03-01T03:08:26.197Z,6.85
2023-03-01T03:13:31.771Z,6.91
2023-03-01T03:18:37.126Z,7.18
2023-03-01T03:23:42.609Z,7.18
2023-03-01T03:28:49.168Z,7.34
2023-03-01T03:33:54.597Z,7.55
2023-03-01T03:38:59.979Z,7.57
2023-03-01T03:44:05.388Z,7.52
2023-03-01T03:49:10.817Z,7.56
2023-03-01T03:54:16.258Z,7.78
2023-03-01T03:59:21.875Z,7.68
2023-03-01T04:04:27.409Z,7.83
2023-03-01T04:09:32.762Z,7.88
2023-03-01T04:14:38.536Z,8.08
2023-03-01T04:19:46.389Z,8.04
2023-03-01T04:24:51.724Z,8.07
2023-03-01T04:29:57.360Z,8.29
2023-03-01T04:35:03.420Z,8.34
2023-03-01T04:40:18.483Z,8.36
2023-03-01T04:45:24.050Z,8.58
2023-03-01T04:50:29.188Z,8.50
2023-03-01T04:55:34.599Z,8.65
2023-03-01T05:00:39.815Z,8.64
2023-03-01T05:05:46.550Z,8.82
2023-03-01T05:10:54.938Z,8.78
2023-03-01T05:16:03.401Z,8.95
2023-03-01T05:21:14.830Z,9.00
2023-03-01T05:26:28.537Z,9.04
2023-03-01T05:31:34.097Z,9.07
2023-03-01T05:36:40.576Z,9.15
2023-03-01T05:41:45.917Z,9.16
2023-03-01T05:46:51.879Z,9.22
2023-03-01T05:51:57.131Z,9.31
2023-03-01T05:57:02.666Z,9.41
2023-03-01T06:02:07.904Z,9.43
2023-03-01T06:07:14.679Z,9.44
2023-03-01T06:12:21.115Z,9.44
2023-03-01T06:17:26.459Z,9.50
2023-03-01T06:22:31.689Z,9.63
2023-03-01T06:27:37.704Z,9.67
2023-03-01T06:32:46.934Z,9.65
2023-03-01T06:37:52.326Z,9.78
2023-03-01T06:42:58.090Z,9.72
2023-03-01T06:48:10.295Z,9.83
2023-03-01T06:53:15.463Z,9.80
2023-03-01T06:58:20.573Z,9.82
2023-03-01T07:03:26.407Z,9.83
2023-03-01T07:08:35.329Z,9.77
2023-03-01T07:13:41.026Z,9.88
2023-03-01T07:18:47.688Z,9.72
2023-03-01T07:23:53.082Z,9.90
2023-03-01T07:28:58.314Z,9.90
2023-03-01T07:34:03.624Z,9.87
2023-03-01T07:39:08.981Z,9.78
2023-03-01T07:44:14.323Z,9.68
2023-03-01T07:49:19.619Z,9.66
2023-03-01T07:54:25.089Z,9.61
2023-03-01T07:59:31.522Z,9.61
2023-03-01T08:04:37.082Z,9.48
2023-03-01T08:09:42.547Z,9.37
2023-03-01T08:14:48.248Z,9.30
2023-03-01T08:19:53.635Z,9.33
2023-03-01T08:24:59.751Z,9.27
2023-03-01T08:30:05.483Z,9.18
2023-03-01T08:35:11.290Z,9.04
2023-03-01T08:40:17.236Z,9.06
2023-03-01T08:45:22.520Z,9.02
2023-03-01T08:50:27.880Z,8.90
2023-03-01T08:55:33.169Z,8.84
2023-03-01T09:00:38.568Z,8.79
2023-03-01T09:05:43.931Z,8.67
2023-03-01T09:10:50.749Z,8.63
2023-03-01T09:15:56.103Z,8.51
2023-03-01T09:21:11.509Z,8.47
2023-03-01T09:26:23.590Z,8.38
2023-03-01T09:31:28.996Z,8.24
2023-03-01T09:36:36.589Z,8.22
2023-03-01T09:41:50.539Z,8.10
2023-03-01T09:46:56.296Z,7.99
2023-03-01T09:52:27.795Z,7.88
2023-03-01T09:57:48.855Z,7.81
2023-03-01T10:03:14.910Z,7.71
2023-03-01T10:08:50.629Z,7.56
2023-03-01T10:14:04.661Z,7.43
2023-03-01T10:19:17.839Z,7.32
2023-03-01T10:24:23.927Z,7.20
2023-03-01T10:29:45.157Z,7.18
2023-03-01T10:34:51.597Z,7.07
2023-03-01T10:40:12.954Z,6.99
2023-03-01T10:45:33.603Z,6.88
2023-03-01T10:50:42.388Z,6.85
2023-03-01T10:55:47.979Z,6.82
2023-03-01T11:00:59.184Z,6.77
2023-03-01T11:06:09.625Z,6.66
2023-03-01T11:11:27.644Z,6.64
2023-03-01T11:16:40.568Z,6.55
2023-03-01T11:22:00.134Z,6.46
2023-03-01T11:27:11.580Z,6.42
2023-03-01T11:32:18.746Z,6.36
2023-03-01T11:37:49.380Z,6.41
2023-03-01T11:43:15.693Z,6.31
2023-03-01T11:48:48.942Z,6.19
2023-03-01T11:54:10.487Z,6.04
2023-03-01T11:59:53.351Z,5.89
2023-03-01T12:05:19.790Z,5.68
2023-03-01T12:10:46.780Z,5.40
2023-03-01T12:16:25.930Z,5.15
2023-03-01T12:21:47.671Z,4.81
2023-03-01T12:27:18.577Z,4.46
2023-03-01T12:32:24.155Z,4.25
2023-03-01T12:38:00.442Z,4.07
2023-03-01T12:43:20.798Z,3.99
2023-03-01T12:48:43.720Z,3.95
2023-03-01T12:53:52.281Z,3.95
2023-03-01T12:59:24.784Z,3.95
2023-03-01T13:04:56.740Z,3.90
2023-03-01T13:10:20.791Z,3.89
2023-03-01T13:15:26.161Z,3.84
2023-03-01T13:20:45.103Z,3.86
2023-03-01T13:26:14.213Z,3.85
2023-03-01T13:31:19.508Z,3.84
2023-03-01T13:36:31.640Z,3.87
2023-03-01T13:41:43.444Z,3.86
2023-03-01T13:46:50.220Z,3.85
2023-03-01T13:51:56.040Z,3.75
2023-03-01T13:57:03.936Z,3.52
2023-03-01T14:02:15.743Z,3.35
2023-03-01T14:07:22.660Z,3.22
2023-03-01T14:12:55.101Z,3.15
2023-03-01T14:18:54.514Z,3.20
2023-03-01T14:24:01.814Z,3.15
2023-03-01T14:29:08.171Z,3.08
2023-03-01T14:34:24.831Z,2.97
2023-03-01T14:39:29.679Z,2.89
2023-03-01T14:44:39.704Z,2.86
2023-03-01T14:49:46.656Z,2.80
2023-03-01T14:54:56.787Z,2.72
2023-03-01T15:00:07.744Z,2.60
2023-03-01T15:05:13.776Z,2.48
2023-03-01T15:10:24.708Z,2.36
2023-03-01T15:15:41.296Z,2.27
2023-03-01T15:20:47.432Z,2.22
2023-03-01T15:25:59.944Z,2.24
2023-03-01T15:31:21.406Z,2.17
2023-03-01T15:36:52.565Z,2.08
2023-03-01T15:41:57.893Z,2.04
2023-03-01T15:47:04.271Z,2.04
2023-03-01T15:52:20.999Z,1.92
2023-03-01T15:57:26.327Z,1.80
2023-03-01T16:02:32.088Z,1.70
2023-03-01T16:07:42.072Z,1.60
2023-03-01T16:12:50.036Z,1.50
2023-03-01T16:17:55.338Z,1.47
2023-03-01T16:23:05.631Z,1.41
2023-03-01T16:28:13.860Z,1.39
2023-03-01T16:33:30.184Z,1.33
2023-03-01T16:38:39.694Z,1.32
2023-03-01T16:43:45.284Z,1.23
2023-03-01T16:48:51.511Z,1.19
2023-03-01T16:53:57.655Z,1.15
2023-03-01T16:59:05.659Z,1.10
2023-03-01T17:04:15.037Z,1.06
2023-03-01T17:09:20.406Z,1.00
2023-03-01T17:14:25.638Z,0.93
2023-03-01T17:19:31.165Z,0.80
2023-03-01T17:24:41.872Z,0.66
2023-03-01T17:29:47.143Z,0.54
2023-03-01T17:34:52.307Z,0.43
2023-03-01T17:39:57.637Z,0.37
2023-03-01T17:45:03.088Z,0.22
2023-03-01T17:50:11.246Z,0.20
2023-03-01T17:55:16.513Z,0.17
2023-03-01T18:00:22.180Z,0.12
2023-03-01T18:05:28.707Z,0.05
2023-03-01T18:10:37.775Z,-0.03
2023-03-01T18:15:43.347Z,-0.03
2023-03-01T18:20:56.864Z,-0.04
2023-03-01T18:26:07.116Z,-0.04
2023-03-01T18:31:12.997Z,-0.05
2023-03-01T18:36:28.103Z,0.03
2023-03-01T18:41:34.513Z,0.11
2023-03-01T18:46:41.238Z,0.10
2023-03-01T18:51:46.768Z,0.03
2023-03-01T18:56:52.283Z,-0.04
2023-03-01T19:01:57.733Z,-0.04
2023-03-01T19:07:03.634Z,-0.05
2023-03-01T19:12:09.246Z,-0.16
2023-03-01T19:17:14.768Z,-0.31
2023-03-01T19:22:20.138Z,-0.34
2023-03-01T19:27:25.701Z,-0.41
2023-03-01T19:32:31.019Z,-0.44
2023-03-01T19:37:38.142Z,-0.49
2023-03-01T19:42:42.986Z,-0.54
2023-03-01T19:47:50.264Z,-0.67
2023-03-01T19:52:55.547Z,-0.74
2023-03-01T19:58:00.804Z,-0.79
2023-03-01T20:03:06.201Z,-0.84
2023-03-01T20:08:12.952Z,-0.92
2023-03-01T20:13:18.486Z,-1.02
2023-03-01T20:18:24.035Z,-0.99
2023-03-01T20:23:30.155Z,-0.88
2023-03-01T20:28:38.009Z,-0.83
2023-03-01T20:33:43.386Z,-0.80
2023-03-01T20:38:48.701Z,-0.80
2023-03-01T20:43:58.350Z,-0.82
2023-03-01T20:49:04.200Z,-0.85
2023-03-01T20:54:09.695Z,-0.92
2023-03-01T20:59:15.137Z,-1.04
2023-03-01T21:04:22.776Z,-1.07
2023-03-01T21:09:28.234Z,-1.15
2023-03-01T21:14:43.675Z,-1.29
2023-03-01T21:19:50.164Z,-1.41
2023-03-01T21:24:55.697Z,-1.51
2023-03-01T21:30:02.055Z,-1.48
2023-03-01T21:35:07.799Z,-1.54
2023-03-01T21:40:13.734Z,-1.65
2023-03-01T21:45:19.153Z,-1.71
2023-03-01T21:50:24.294Z,-1.79
2023-03-01T21:55:30.489Z,-1.89
2023-03-01T22:00:40.931Z,-1.98
2023-03-01T22:05:55.795Z,-2.10
2023-03-01T22:11:04.418Z,-2.16
2023-03-01T22:16:10.377Z,-2.27
2023-03-01T22:21:16.909Z,-2.36
2023-03-01T22:26:30.531Z,-2.39
2023-03-01T22:31:36.745Z,-2.33
2023-03-01T22:36:42.069Z,-2.25
2023-03-01T22:41:49.312Z,-2.19
2023-03-01T22:46:55.154Z,-2.18
2023-03-01T22:52:01.276Z,-2.20
2023-03-01T22:57:07.443Z,-2.25
2023-03-01T23:02:13.592Z,-2.31
2023-03-01T23:07:19.193Z,-2.33
2023-03-01T23:12:24.750Z,-2.34
2023-03-01T23:17:30.013Z,-2.33
2023-03-01T23:22:35.350Z,-2.29
2023-03-01T23:27:41.251Z,-2.22
2023-03-01T23:32:45.900Z,-2.09
2023-03-01T23:37:52.118Z,-2.01
2023-03-01T23:42:58.627Z,-1.79
2023-03-01T23:48:04.492Z,-1.65
2023-03-01T23:53:17.235Z,-1.53
2023-03-01T23:58:29.710Z,-1.39
